Time;durP1;ratioP1;P1;durP2;ratioP2;P2;SDS_P1;SDS_P2;PMS_P1;PMS_P2;Temp;Humidity;BMP_temperature;BMP_pressure;BME280_temperature;BME280_humidity;BME280_pressure;Samples;Min_cycle;Max_cycle;Signal;HPM_P1;HPM_P2
2023/07/17 00:02:24;;;;;;;16.10;14.50;;;;;;;;;;107498;1250;61360;-80
2023/07/17 00:04:50;;;;;;;16.20;14.50;;;;;;;;;;107486;1251;61327;-80
2023/07/17 00:07:16;;;;;;;15.70;14.10;;;;;;;;;;107499;1252;61242;-80
2023/07/17 00:09:43;;;;;;;19.00;15.90;;;;;;;;;;107518;1249;61270;-80
2023/07/17 00:12:09;;;;;;;16.10;14.40;;;;;;;;;;107503;1249;61211;-81
2023/07/17 00:14:36;;;;;;;17.60;15.90;;;;;;;;;;107530;1250;61339;-80
2023/07/17 00:17:02;;;;;;;17.70;15.80;;;;;;;;;;108158;1250;59454;-80
2023/07/17 00:19:29;;;;;;;18.50;15.30;;;;;;;;;;107933;1250;61161;-80
2023/07/17 00:21:55;;;;;;;21.30;17.70;;;;;;;;;;107560;1250;61098;-79
2023/07/17 00:24:22;;;;;;;18.90;16.40;;;;;;;;;;107607;1249;59550;-80
2023/07/17 00:26:48;;;;;;;17.50;15.50;;;;;;;;;;107634;1250;61208;-80
2023/07/17 00:29:25;;;;;;;22.80;15.90;;;;;;;;;;107444;1250;61620;-80
2023/07/17 00:31:51;;;;;;;17.90;16.10;;;;;;;;;;107552;1249;61356;-79
2023/07/17 00:34:18;;;;;;;16.80;15.10;;;;;;;;;;108962;1252;59184;-79
2023/07/17 00:36:45;;;;;;;18.50;15.50;;;;;;;;;;107659;1249;61263;-81
2023/07/17 00:39:15;;;;;;;17.60;15.70;;;;;;;;;;107572;1250;61163;-80
2023/07/17 00:41:41;;;;;;;19.30;16.30;;;;;;;;;;107509;1250;61346;-81
2023/07/17 00:44:08;;;;;;;18.60;15.70;;;;;;;;;;107581;1249;61375;-80
2023/07/17 00:46:34;;;;;;;16.70;15.00;;;;;;;;;;107565;1249;61082;-80
2023/07/17 00:49:01;;;;;;;17.70;15.80;;;;;;;;;;107563;1248;61313;-81
2023/07/17 00:51:27;;;;;;;17.60;15.70;;;;;;;;;;107575;1251;61318;-81
2023/07/17 00:53:54;;;;;;;18.10;16.20;;;;;;;;;;107581;1249;61249;-81
2023/07/17 00:56:20;;;;;;;17.90;16.10;;;;;;;;;;107533;1250;59515;-81
2023/07/17 00:58:47;;;;;;;17.50;15.90;;;;;;;;;;107556;1251;61324;-81
2023/07/17 01:01:13;;;;;;;22.00;16.90;;;;;;;;;;107486;1250;61306;-81
2023/07/17 01:03:39;;;;;;;19.20;17.20;;;;;;;;;;107484;1250;61416;-80
2023/07/17 01:06:06;;;;;;;19.30;17.30;;;;;;;;;;107465;1252;61353;-81
2023/07/17 01:08:32;;;;;;;21.40;17.00;;;;;;;;;;107415;1249;60306;-81
2023/07/17 01:10:58;;;;;;;24.10;18.00;;;;;;;;;;107495;1249;61359;-81
2023/07/17 01:13:25;;;;;;;19.10;17.20;;;;;;;;;;107617;1250;61321;-81
2023/07/17 01:15:51;;;;;;;20.30;18.20;;;;;;;;;;107508;1249;61271;-81
2023/07/17 01:18:18;;;;;;;22.30;19.60;;;;;;;;;;107575;1250;61134;-81
2023/07/17 01:20:44;;;;;;;19.40;17.40;;;;;;;;;;107494;1249;61203;-81
2023/07/17 01:23:11;;;;;;;17.80;16.10;;;;;;;;;;107576;1250;59591;-80
2023/07/17 01:25:37;;;;;;;19.70;17.60;;;;;;;;;;107541;1249;61217;-81
2023/07/17 01:28:03;;;;;;;19.70;17.70;;;;;;;;;;107576;1250;61247;-81
2023/07/17 01:30:30;;;;;;;22.00;17.30;;;;;;;;;;107561;1250;61239;-80
2023/07/17 01:32:56;;;;;;;19.30;17.10;;;;;;;;;;107526;1249;61320;-81
2023/07/17 01:35:23;;;;;;;19.60;17.30;;;;;;;;;;107520;1248;61349;-80
2023/07/17 01:37:49;;;;;;;20.10;16.40;;;;;;;;;;107602;1250;61214;-80
2023/07/17 01:40:16;;;;;;;19.00;17.00;;;;;;;;;;107521;1250;61253;-81
2023/07/17 01:42:42;;;;;;;21.30;18.60;;;;;;;;;;107482;1248;61232;-81
2023/07/17 01:45:09;;;;;;;21.60;17.70;;;;;;;;;;107612;1250;61362;-80
2023/07/17 01:47:36;;;;;;;21.00;18.90;;;;;;;;;;107528;1249;60804;-80
2023/07/17 01:50:03;;;;;;;19.70;17.70;;;;;;;;;;107523;1251;61245;-81
2023/07/17 01:52:29;;;;;;;22.20;17.80;;;;;;;;;;107531;1252;61312;-79
2023/07/17 01:54:56;;;;;;;19.90;17.60;;;;;;;;;;107528;1252;61314;-80
2023/07/17 01:57:22;;;;;;;21.80;17.10;;;;;;;;;;107482;1252;59733;-79
2023/07/17 01:59:49;;;;;;;21.70;18.10;;;;;;;;;;107536;1249;61252;-80
2023/07/17 02:02:15;;;;;;;18.90;17.00;;;;;;;;;;107580;1250;61336;-80
2023/07/17 02:04:41;;;;;;;20.80;17.50;;;;;;;;;;107514;1250;61323;-80
2023/07/17 02:07:08;;;;;;;19.00;16.50;;;;;;;;;;107498;1250;61350;-80
2023/07/17 02:09:34;;;;;;;20.30;17.30;;;;;;;;;;107497;1251;61270;-81
2023/07/17 02:12:00;;;;;;;19.50;16.10;;;;;;;;;;107566;1250;61324;-81
2023/07/17 02:14:27;;;;;;;18.80;16.90;;;;;;;;;;107505;1252;61382;-80
2023/07/17 02:16:53;;;;;;;19.80;17.70;;;;;;;;;;107859;1249;60303;-81
2023/07/17 02:19:20;;;;;;;18.60;16.60;;;;;;;;;;108137;1251;61868;-79
2023/07/17 02:21:47;;;;;;;21.00;17.80;;;;;;;;;;109321;1249;61195;-81
2023/07/17 02:24:14;;;;;;;19.70;17.60;;;;;;;;;;107501;1249;61893;-79
2023/07/17 02:26:40;;;;;;;21.70;17.30;;;;;;;;;;107518;1250;61201;-80
2023/07/17 02:29:07;;;;;;;20.70;17.50;;;;;;;;;;108240;1252;59147;-79
2023/07/17 02:31:33;;;;;;;20.00;17.90;;;;;;;;;;108094;1250;59002;-80
2023/07/17 02:33:59;;;;;;;19.30;17.50;;;;;;;;;;108122;1252;61186;-79
2023/07/17 02:36:26;;;;;;;20.40;18.10;;;;;;;;;;107676;1250;61081;-80
2023/07/17 02:38:52;;;;;;;20.80;17.70;;;;;;;;;;108009;1249;61125;-79
2023/07/17 02:41:19;;;;;;;23.70;18.50;;;;;;;;;;110121;1249;58899;-80
2023/07/17 02:43:45;;;;;;;18.60;16.50;;;;;;;;;;110197;1249;58832;-80
2023/07/17 02:46:11;;;;;;;17.80;15.90;;;;;;;;;;110117;1250;58866;-81
2023/07/17 02:48:38;;;;;;;19.50;17.20;;;;;;;;;;110081;1248;58829;-80
2023/07/17 02:51:04;;;;;;;20.10;18.00;;;;;;;;;;110112;1250;59469;-81
2023/07/17 02:53:31;;;;;;;18.90;16.90;;;;;;;;;;110118;1249;58950;-80
2023/07/17 02:55:57;;;;;;;20.00;17.90;;;;;;;;;;109071;1250;59173;-80
2023/07/17 02:58:23;;;;;;;19.90;17.70;;;;;;;;;;107466;1249;61267;-81
2023/07/17 03:00:50;;;;;;;20.80;17.10;;;;;;;;;;107493;1250;61262;-81
2023/07/17 03:03:16;;;;;;;20.40;17.90;;;;;;;;;;107513;1252;60321;-80
2023/07/17 03:05:42;;;;;;;20.30;17.10;;;;;;;;;;107497;1252;61352;-82
2023/07/17 03:08:09;;;;;;;19.90;17.40;;;;;;;;;;106897;1250;61267;-81
2023/07/17 03:10:35;;;;;;;21.50;17.60;;;;;;;;;;107552;1249;61331;-81
2023/07/17 03:13:01;;;;;;;23.30;19.30;;;;;;;;;;107496;1250;61316;-80
2023/07/17 03:15:28;;;;;;;19.20;17.30;;;;;;;;;;107524;1250;61273;-81
2023/07/17 03:17:54;;;;;;;19.60;17.60;;;;;;;;;;107575;1250;61222;-81
2023/07/17 03:20:20;;;;;;;19.90;17.80;;;;;;;;;;107513;1252;61214;-81
2023/07/17 03:22:48;;;;;;;18.20;16.40;;;;;;;;;;107492;1250;61216;-81
2023/07/17 03:25:15;;;;;;;19.60;17.20;;;;;;;;;;107563;1249;61347;-80
2023/07/17 03:27:41;;;;;;;18.80;15.80;;;;;;;;;;107509;1252;61263;-80
2023/07/17 03:30:08;;;;;;;18.70;16.80;;;;;;;;;;107522;1251;61305;-81
2023/07/17 03:32:35;;;;;;;23.10;17.70;;;;;;;;;;107474;1249;61362;-80
2023/07/17 03:35:01;;;;;;;19.00;16.30;;;;;;;;;;108332;1250;61317;-81
2023/07/17 03:37:27;;;;;;;19.80;17.70;;;;;;;;;;107485;1249;61199;-82
2023/07/17 03:39:54;;;;;;;20.40;18.30;;;;;;;;;;107457;1249;61190;-80
2023/07/17 03:42:20;;;;;;;23.90;19.70;;;;;;;;;;107484;1252;61244;-80
2023/07/17 03:44:47;;;;;;;20.50;18.50;;;;;;;;;;107561;1249;61234;-81
2023/07/17 03:47:13;;;;;;;20.10;18.00;;;;;;;;;;107520;1252;61307;-80
2023/07/17 03:49:39;;;;;;;24.20;18.60;;;;;;;;;;107485;1248;61291;-80
2023/07/17 03:52:06;;;;;;;19.30;17.10;;;;;;;;;;107527;1250;61187;-81
2023/07/17 03:54:32;;;;;;;20.60;18.30;;;;;;;;;;107490;1248;61213;-80
2023/07/17 03:56:59;;;;;;;19.70;17.60;;;;;;;;;;107449;1250;61247;-81
2023/07/17 03:59:25;;;;;;;19.10;17.10;;;;;;;;;;107475;1250;61344;-80
2023/07/17 04:01:52;;;;;;;22.80;19.80;;;;;;;;;;107541;1250;60231;-81
2023/07/17 04:04:18;;;;;;;25.10;20.20;;;;;;;;;;107620;1248;61218;-81
2023/07/17 04:06:45;;;;;;;20.40;18.30;;;;;;;;;;107444;1249;61151;-81
2023/07/17 04:09:12;;;;;;;20.90;18.60;;;;;;;;;;107466;1250;61135;-81
2023/07/17 04:11:39;;;;;;;21.20;18.10;;;;;;;;;;107500;1250;61379;-82
2023/07/17 04:14:05;;;;;;;19.70;17.80;;;;;;;;;;107620;1249;61218;-81
2023/07/17 04:16:32;;;;;;;24.70;17.90;;;;;;;;;;107680;1249;59842;-81
2023/07/17 04:18:58;;;;;;;20.50;18.30;;;;;;;;;;107554;1252;61241;-81
2023/07/17 04:21:24;;;;;;;17.50;15.60;;;;;;;;;;107441;1250;61308;-81
2023/07/17 04:23:53;;;;;;;21.60;17.20;;;;;;;;;;107511;1250;61190;-81
2023/07/17 04:26:19;;;;;;;18.60;16.70;;;;;;;;;;107644;1250;59214;-81
2023/07/17 04:28:45;;;;;;;19.50;16.60;;;;;;;;;;107498;1250;61358;-81
2023/07/17 04:31:12;;;;;;;20.50;17.00;;;;;;;;;;107500;1250;61340;-81
2023/07/17 04:33:38;;;;;;;18.30;16.40;;;;;;;;;;107360;1252;61411;-81
2023/07/17 04:36:08;;;;;;;19.50;17.50;;;;;;;;;;107431;1248;60211;-81
2023/07/17 04:38:34;;;;;;;22.40;17.70;;;;;;;;;;107492;1249;61116;-81
2023/07/17 04:41:01;;;;;;;18.60;16.60;;;;;;;;;;107444;1252;61222;-81
2023/07/17 04:43:27;;;;;;;18.80;16.90;;;;;;;;;;107480;1248;61226;-80
2023/07/17 04:45:53;;;;;;;18.80;16.90;;;;;;;;;;107463;1252;61298;-80
2023/07/17 04:48:20;;;;;;;18.90;16.80;;;;;;;;;;107436;1249;61104;-80
2023/07/17 04:50:46;;;;;;;18.30;16.60;;;;;;;;;;107419;1250;61306;-80
2023/07/17 04:53:13;;;;;;;22.60;16.20;;;;;;;;;;107437;1249;61334;-79
2023/07/17 04:55:39;;;;;;;17.70;15.80;;;;;;;;;;107445;1250;62818;-80
2023/07/17 04:58:05;;;;;;;19.50;14.90;;;;;;;;;;107419;1252;61282;-80
2023/07/17 05:00:33;;;;;;;16.90;14.40;;;;;;;;;;107521;1250;61222;-80
2023/07/17 05:02:59;;;;;;;16.40;14.80;;;;;;;;;;107639;1249;62161;-79
2023/07/17 05:05:26;;;;;;;15.80;14.40;;;;;;;;;;107503;1249;61149;-80
2023/07/17 05:07:53;;;;;;;17.30;14.80;;;;;;;;;;107743;1250;60810;-80
2023/07/17 05:10:19;;;;;;;17.90;13.70;;;;;;;;;;107388;1251;61101;-80
2023/07/17 05:12:46;;;;;;;16.50;14.70;;;;;;;;;;107483;1249;61344;-81
2023/07/17 05:15:12;;;;;;;17.60;14.60;;;;;;;;;;107470;1249;61308;-81
2023/07/17 05:17:39;;;;;;;16.40;14.40;;;;;;;;;;107438;1252;61328;-82
2023/07/17 05:20:06;;;;;;;16.20;13.40;;;;;;;;;;107442;1248;61151;-80
2023/07/17 05:22:32;;;;;;;15.30;13.70;;;;;;;;;;108039;1250;61270;-80
2023/07/17 05:24:59;;;;;;;20.60;14.40;;;;;;;;;;107361;1252;61250;-80
2023/07/17 05:27:25;;;;;;;14.30;12.90;;;;;;;;;;107492;1252;61142;-80
2023/07/17 05:29:52;;;;;;;16.20;14.30;;;;;;;;;;107475;1252;61136;-80
2023/07/17 05:32:18;;;;;;;18.30;14.80;;;;;;;;;;107414;1249;61237;-80
2023/07/17 05:34:44;;;;;;;23.20;18.20;;;;;;;;;;107448;1249;61239;-80
2023/07/17 05:37:11;;;;;;;16.90;14.80;;;;;;;;;;107400;1249;61350;-79
2023/07/17 05:39:37;;;;;;;17.10;15.10;;;;;;;;;;107440;1248;61260;-81
2023/07/17 05:42:04;;;;;;;19.40;14.70;;;;;;;;;;107460;1250;61243;-81
2023/07/17 05:44:30;;;;;;;17.20;14.10;;;;;;;;;;107427;1252;61334;-81
2023/07/17 05:46:57;;;;;;;16.40;14.90;;;;;;;;;;107374;1250;62383;-80
2023/07/17 05:49:23;;;;;;;16.80;15.20;;;;;;;;;;107404;1250;61359;-81
2023/07/17 05:51:49;;;;;;;18.00;16.10;;;;;;;;;;107409;1250;61310;-81
2023/07/17 05:54:16;;;;;;;17.90;15.50;;;;;;;;;;107480;1252;61298;-81
2023/07/17 05:56:43;;;;;;;19.60;15.30;;;;;;;;;;107425;1249;61217;-81
2023/07/17 05:59:09;;;;;;;16.10;14.40;;;;;;;;;;107633;1249;62046;-81
2023/07/17 06:01:36;;;;;;;20.00;13.60;;;;;;;;;;107484;1250;61467;-81
2023/07/17 06:04:02;;;;;;;19.00;16.80;;;;;;;;;;107637;1252;61391;-82
2023/07/17 06:06:29;;;;;;;20.20;17.80;;;;;;;;;;107666;1248;61267;-82
2023/07/17 06:08:57;;;;;;;20.60;18.50;;;;;;;;;;107590;1252;61340;-81
2023/07/17 06:11:23;;;;;;;21.90;19.20;;;;;;;;;;107485;1251;61402;-82
2023/07/17 06:13:50;;;;;;;23.00;20.60;;;;;;;;;;107480;1249;61237;-80
2023/07/17 06:16:17;;;;;;;23.00;20.40;;;;;;;;;;107489;1250;61207;-80
2023/07/17 06:18:43;;;;;;;21.10;19.00;;;;;;;;;;107484;1250;61215;-81
2023/07/17 06:21:09;;;;;;;20.50;18.50;;;;;;;;;;107795;1250;61257;-80
2023/07/17 06:23:36;;;;;;;19.50;17.10;;;;;;;;;;107447;1250;61337;-81
2023/07/17 06:26:03;;;;;;;19.70;16.20;;;;;;;;;;107483;1249;61343;-81
2023/07/17 06:28:30;;;;;;;22.70;15.80;;;;;;;;;;107517;1250;61097;-82
2023/07/17 06:30:56;;;;;;;25.20;14.70;;;;;;;;;;107878;1250;60259;-81
2023/07/17 06:33:23;;;;;;;17.80;14.00;;;;;;;;;;107685;1250;61174;-81
2023/07/17 06:35:49;;;;;;;16.80;12.20;;;;;;;;;;107574;1251;61251;-81
2023/07/17 06:38:16;;;;;;;11.20;10.20;;;;;;;;;;107798;1253;61389;-81
2023/07/17 06:40:43;;;;;;;12.80;8.90;;;;;;;;;;107702;1250;61158;-81
2023/07/17 06:43:09;;;;;;;13.80;8.60;;;;;;;;;;107691;1250;61141;-81
2023/07/17 06:45:35;;;;;;;10.30;7.90;;;;;;;;;;107967;1248;61240;-81
2023/07/17 06:48:02;;;;;;;12.50;5.80;;;;;;;;;;109043;1249;59468;-82
2023/07/17 06:50:29;;;;;;;8.30;6.30;;;;;;;;;;107688;1250;61238;-81
2023/07/17 06:52:55;;;;;;;7.00;5.60;;;;;;;;;;107890;1249;59303;-81
2023/07/17 06:55:22;;;;;;;10.20;6.60;;;;;;;;;;107796;1252;61143;-81
2023/07/17 06:57:48;;;;;;;7.20;4.80;;;;;;;;;;107760;1250;61218;-81
2023/07/17 07:00:15;;;;;;;7.20;5.20;;;;;;;;;;107624;1250;61274;-82
2023/07/17 07:02:42;;;;;;;8.30;4.10;;;;;;;;;;107544;1249;61272;-81
2023/07/17 07:05:09;;;;;;;6.00;4.90;;;;;;;;;;107366;1252;61218;-81
2023/07/17 07:07:35;;;;;;;5.80;4.20;;;;;;;;;;107380;1250;61334;-82
2023/07/17 07:10:01;;;;;;;7.80;4.20;;;;;;;;;;106224;1249;1373658;-83
2023/07/17 07:12:28;;;;;;;8.50;5.80;;;;;;;;;;107393;1251;61216;-82
2023/07/17 07:14:54;;;;;;;7.40;3.60;;;;;;;;;;107292;1251;62003;-81
2023/07/17 07:17:20;;;;;;;6.40;3.60;;;;;;;;;;107469;1250;59264;-81
2023/07/17 07:19:47;;;;;;;4.90;3.50;;;;;;;;;;107359;1250;61251;-81
2023/07/17 07:22:13;;;;;;;5.50;2.90;;;;;;;;;;107692;1250;61114;-81
2023/07/17 07:24:42;;;;;;;3.70;2.70;;;;;;;;;;107465;1251;61330;-82
2023/07/17 07:27:09;;;;;;;4.50;2.70;;;;;;;;;;107436;1251;62380;-82
2023/07/17 07:29:35;;;;;;;4.30;2.90;;;;;;;;;;107363;1252;61106;-81
2023/07/17 07:32:02;;;;;;;3.70;2.80;;;;;;;;;;107704;1249;61267;-81
2023/07/17 07:34:28;;;;;;;4.40;3.20;;;;;;;;;;107754;1250;61247;-81
2023/07/17 07:36:55;;;;;;;4.90;3.60;;;;;;;;;;107850;1250;61251;-82
2023/07/17 07:39:21;;;;;;;4.20;3.30;;;;;;;;;;107452;1252;61901;-81
2023/07/17 07:41:47;;;;;;;6.00;3.50;;;;;;;;;;107545;1250;60332;-81
2023/07/17 07:44:14;;;;;;;7.00;3.50;;;;;;;;;;107558;1249;61230;-82
2023/07/17 07:46:40;;;;;;;5.80;3.60;;;;;;;;;;107708;1250;61346;-80
2023/07/17 07:49:06;;;;;;;6.10;4.20;;;;;;;;;;107521;1250;61740;-81
2023/07/17 07:51:33;;;;;;;12.00;6.60;;;;;;;;;;107865;1252;61111;-81
2023/07/17 07:53:59;;;;;;;33.80;21.40;;;;;;;;;;107842;1249;61266;-81
2023/07/17 07:56:26;;;;;;;20.10;14.40;;;;;;;;;;107637;1250;61223;-81
2023/07/17 07:58:52;;;;;;;8.00;6.60;;;;;;;;;;107365;1250;61243;-82
2023/07/17 08:01:19;;;;;;;8.40;6.70;;;;;;;;;;107472;1250;61246;-82
2023/07/17 08:03:45;;;;;;;8.30;5.60;;;;;;;;;;107476;1253;61351;-82
2023/07/17 08:06:12;;;;;;;8.30;5.40;;;;;;;;;;107546;1252;59627;-80
2023/07/17 08:08:38;;;;;;;10.20;4.80;;;;;;;;;;107806;1250;61257;-81
2023/07/17 08:11:04;;;;;;;5.80;4.60;;;;;;;;;;107781;1249;61103;-80
2023/07/17 08:13:31;;;;;;;6.60;4.60;;;;;;;;;;107793;1249;61262;-81
2023/07/17 08:15:57;;;;;;;9.30;5.20;;;;;;;;;;107939;1252;61351;-81
2023/07/17 08:18:23;;;;;;;7.30;4.40;;;;;;;;;;107897;1249;61131;-80
2023/07/17 08:20:50;;;;;;;6.70;4.30;;;;;;;;;;107712;1249;61294;-81
2023/07/17 08:23:23;;;;;;;6.50;5.20;;;;;;;;;;107501;1250;61327;-82
2023/07/17 08:25:50;;;;;;;7.00;5.10;;;;;;;;;;107671;1250;61364;-81
2023/07/17 08:28:16;;;;;;;6.90;4.30;;;;;;;;;;107578;1250;61206;-81
2023/07/17 08:30:43;;;;;;;4.90;3.70;;;;;;;;;;107579;1250;61242;-82
2023/07/17 08:33:11;;;;;;;8.90;5.20;;;;;;;;;;107551;1252;61219;-82
2023/07/17 08:35:37;;;;;;;7.20;4.50;;;;;;;;;;107448;1249;61263;-81
2023/07/17 08:38:04;;;;;;;6.70;5.10;;;;;;;;;;107636;1249;61289;-82
2023/07/17 08:40:30;;;;;;;6.80;4.50;;;;;;;;;;107478;1252;61139;-81
2023/07/17 08:42:56;;;;;;;4.50;4.00;;;;;;;;;;107391;1249;61329;-82
2023/07/17 08:45:23;;;;;;;5.00;3.80;;;;;;;;;;107617;1252;61330;-82
2023/07/17 08:47:51;;;;;;;5.60;4.40;;;;;;;;;;107650;1250;61332;-81
2023/07/17 08:50:17;;;;;;;7.50;4.20;;;;;;;;;;107400;1250;61231;-81
2023/07/17 08:52:44;;;;;;;6.40;5.00;;;;;;;;;;107596;1253;61345;-82
2023/07/17 08:55:10;;;;;;;6.30;4.20;;;;;;;;;;107430;1252;61100;-81
2023/07/17 08:57:37;;;;;;;6.30;4.80;;;;;;;;;;107369;1250;61135;-82
2023/07/17 09:00:04;;;;;;;6.90;4.80;;;;;;;;;;107485;1248;61333;-81
2023/07/17 09:02:31;;;;;;;6.60;4.50;;;;;;;;;;107519;1252;61211;-82
2023/07/17 09:04:57;;;;;;;7.30;4.50;;;;;;;;;;107638;1252;61254;-83
2023/07/17 09:07:24;;;;;;;4.90;4.20;;;;;;;;;;107791;1249;59224;-80
2023/07/17 09:10:09;;;;;;;10.50;4.60;;;;;;;;;;107684;1250;61185;-81
2023/07/17 09:12:35;;;;;;;6.20;4.30;;;;;;;;;;107705;1251;61176;-81
2023/07/17 09:15:02;;;;;;;7.20;4.30;;;;;;;;;;107609;1251;61213;-82
2023/07/17 09:17:28;;;;;;;11.00;5.20;;;;;;;;;;107786;1251;61359;-81
2023/07/17 09:20:07;;;;;;;6.80;5.60;;;;;;;;;;107776;1252;61863;-82
2023/07/17 09:22:33;;;;;;;8.90;5.00;;;;;;;;;;107512;1253;61246;-82
2023/07/17 09:25:00;;;;;;;7.40;5.00;;;;;;;;;;107662;1249;61228;-82
2023/07/17 09:27:26;;;;;;;7.80;5.00;;;;;;;;;;107953;1252;61296;-83
2023/07/17 09:29:52;;;;;;;6.80;5.50;;;;;;;;;;108198;1251;59241;-81
2023/07/17 09:32:19;;;;;;;8.50;5.60;;;;;;;;;;107693;1250;61216;-82
2023/07/17 09:34:52;;;;;;;6.40;5.10;;;;;;;;;;107694;1253;61474;-81
2023/07/17 09:37:19;;;;;;;7.60;5.60;;;;;;;;;;107863;1253;59817;-83
2023/07/17 09:39:45;;;;;;;9.50;5.80;;;;;;;;;;107779;1251;61221;-82
2023/07/17 09:42:30;;;;;;;10.60;6.40;;;;;;;;;;107809;1248;61789;-81
2023/07/17 09:44:57;;;;;;;6.60;5.60;;;;;;;;;;107632;1254;61145;-81
2023/07/17 09:47:23;;;;;;;6.10;5.10;;;;;;;;;;107871;1253;60440;-82
2023/07/17 09:49:53;;;;;;;8.90;5.00;;;;;;;;;;107675;1250;61240;-81
2023/07/17 09:52:20;;;;;;;6.60;5.10;;;;;;;;;;107537;1252;61337;-81
2023/07/17 09:54:48;;;;;;;12.50;6.30;;;;;;;;;;107681;1252;61241;-80
2023/07/17 09:57:19;;;;;;;7.60;5.80;;;;;;;;;;107896;1253;62004;-82
2023/07/17 09:59:46;;;;;;;8.60;5.70;;;;;;;;;;107660;1250;61270;-82
2023/07/17 10:02:15;;;;;;;10.20;5.90;;;;;;;;;;107673;1253;61347;-82
2023/07/17 10:04:42;;;;;;;8.80;5.70;;;;;;;;;;107464;1253;61343;-82
2023/07/17 10:07:08;;;;;;;7.90;6.20;;;;;;;;;;107628;1251;61272;-82
2023/07/17 10:09:35;;;;;;;7.30;5.90;;;;;;;;;;107646;1253;61343;-81
2023/07/17 10:12:02;;;;;;;8.00;7.30;;;;;;;;;;107583;1249;61263;-81
2023/07/17 10:14:29;;;;;;;8.90;7.50;;;;;;;;;;107470;1248;61161;-82
2023/07/17 10:16:55;;;;;;;10.30;7.70;;;;;;;;;;107683;1253;61209;-81
2023/07/17 10:19:25;;;;;;;9.70;8.00;;;;;;;;;;107636;1250;61289;-82
2023/07/17 10:21:56;;;;;;;10.60;8.50;;;;;;;;;;107707;1251;61188;-82
2023/07/17 10:24:25;;;;;;;13.60;8.80;;;;;;;;;;107599;1253;61218;-81
2023/07/17 10:26:54;;;;;;;8.40;7.20;;;;;;;;;;107814;1253;61296;-82
2023/07/17 10:29:31;;;;;;;11.00;9.00;;;;;;;;;;108061;1249;61358;-83
2023/07/17 10:31:58;;;;;;;8.90;7.50;;;;;;;;;;107726;1248;61891;-81
2023/07/17 10:35:00;;;;;;;8.40;7.10;;;;;;;;;;107665;1250;61149;-81
2023/07/17 10:37:44;;;;;;;10.30;7.90;;;;;;;;;;107314;1257;61135;-81
2023/07/17 10:40:27;;;;;;;12.60;8.00;;;;;;;;;;107776;1252;61242;-82
2023/07/17 10:42:54;;;;;;;9.30;7.60;;;;;;;;;;107615;1251;61242;-82
2023/07/17 10:45:20;;;;;;;10.20;7.40;;;;;;;;;;107634;1250;61158;-82
2023/07/17 10:47:50;;;;;;;14.40;7.40;;;;;;;;;;107793;1251;59447;-81
2023/07/17 10:50:17;;;;;;;9.20;6.60;;;;;;;;;;107566;1251;61241;-83
2023/07/17 10:52:43;;;;;;;8.00;6.40;;;;;;;;;;107854;1253;61237;-82
2023/07/17 10:55:10;;;;;;;7.90;7.00;;;;;;;;;;107632;1250;60938;-83
2023/07/17 10:57:37;;;;;;;10.90;6.80;;;;;;;;;;107761;1250;61327;-82
2023/07/17 11:00:04;;;;;;;9.80;6.60;;;;;;;;;;107702;1251;59373;-82
2023/07/17 11:02:31;;;;;;;10.20;8.00;;;;;;;;;;107720;1250;61302;-82
2023/07/17 11:05:01;;;;;;;10.30;6.80;;;;;;;;;;107614;1249;61344;-82
2023/07/17 11:07:36;;;;;;;7.30;5.50;;;;;;;;;;107808;1252;61215;-83
2023/07/17 11:10:16;;;;;;;8.10;5.30;;;;;;;;;;107633;1254;61132;-81
2023/07/17 11:12:42;;;;;;;5.40;4.80;;;;;;;;;;107817;1252;61263;-81
2023/07/17 11:15:15;;;;;;;5.80;4.80;;;;;;;;;;107619;1252;61281;-81
2023/07/17 11:17:42;;;;;;;6.60;5.10;;;;;;;;;;107848;1249;61081;-81
2023/07/17 11:20:08;;;;;;;12.60;5.80;;;;;;;;;;107663;1252;61215;-80
2023/07/17 11:22:36;;;;;;;10.00;4.70;;;;;;;;;;107617;1252;59454;-80
2023/07/17 11:25:03;;;;;;;4.80;3.60;;;;;;;;;;107519;1249;61331;-80
2023/07/17 11:27:29;;;;;;;6.20;4.20;;;;;;;;;;107689;1252;61138;-81
2023/07/17 11:29:56;;;;;;;5.20;3.30;;;;;;;;;;107832;1251;61250;-80
2023/07/17 11:32:22;;;;;;;14.00;4.60;;;;;;;;;;107647;1251;61141;-81
2023/07/17 11:34:53;;;;;;;5.60;4.20;;;;;;;;;;107501;1253;61218;-81
2023/07/17 11:37:29;;;;;;;7.50;4.20;;;;;;;;;;107824;1252;61135;-81
2023/07/17 11:39:55;;;;;;;5.90;3.10;;;;;;;;;;107601;1251;61340;-80
2023/07/17 11:42:22;;;;;;;5.40;2.80;;;;;;;;;;107487;1251;61168;-80
2023/07/17 11:44:56;;;;;;;4.70;3.10;;;;;;;;;;107568;1253;61257;-80
2023/07/17 11:47:23;;;;;;;5.40;2.60;;;;;;;;;;107746;1250;61206;-81
2023/07/17 11:49:51;;;;;;;6.80;3.60;;;;;;;;;;107578;1252;62362;-83
2023/07/17 11:52:18;;;;;;;8.80;2.80;;;;;;;;;;107571;1251;61228;-81
2023/07/17 11:54:44;;;;;;;6.20;2.90;;;;;;;;;;107523;1251;60258;-81
2023/07/17 11:57:11;;;;;;;7.60;4.20;;;;;;;;;;107654;1251;61314;-80
2023/07/17 11:59:37;;;;;;;10.20;3.80;;;;;;;;;;107274;1251;61205;-80
2023/07/17 12:02:04;;;;;;;6.90;4.20;;;;;;;;;;107295;1251;61184;-80
2023/07/17 12:04:39;;;;;;;11.10;4.90;;;;;;;;;;108602;1253;61254;-80
2023/07/17 12:07:06;;;;;;;9.10;4.80;;;;;;;;;;107527;1251;61231;-80
2023/07/17 12:09:33;;;;;;;11.90;4.90;;;;;;;;;;107288;1251;61132;-80
2023/07/17 12:11:59;;;;;;;15.50;4.80;;;;;;;;;;107631;1254;61338;-82
2023/07/17 12:14:26;;;;;;;10.80;5.10;;;;;;;;;;107380;1248;61170;-80
2023/07/17 12:16:52;;;;;;;12.10;6.10;;;;;;;;;;107576;1249;59860;-79
2023/07/17 12:19:19;;;;;;;12.50;5.90;;;;;;;;;;107430;1253;61302;-80
2023/07/17 12:21:45;;;;;;;12.90;6.50;;;;;;;;;;107469;1251;61265;-80
2023/07/17 12:24:12;;;;;;;11.20;5.20;;;;;;;;;;107381;1251;61230;-80
2023/07/17 12:26:38;;;;;;;11.80;5.60;;;;;;;;;;107769;1251;61308;-80
2023/07/17 12:29:05;;;;;;;10.10;7.10;;;;;;;;;;107665;1247;61221;-80
2023/07/17 12:31:31;;;;;;;14.00;6.40;;;;;;;;;;107518;1254;61257;-81
2023/07/17 12:33:57;;;;;;;8.90;6.00;;;;;;;;;;107528;1251;61343;-81
2023/07/17 12:36:24;;;;;;;14.20;6.80;;;;;;;;;;107536;1248;61304;-80
2023/07/17 12:38:50;;;;;;;11.00;6.30;;;;;;;;;;107520;1252;61327;-81
2023/07/17 12:41:18;;;;;;;11.60;5.70;;;;;;;;;;107501;1248;61334;-80
2023/07/17 12:43:45;;;;;;;8.00;5.50;;;;;;;;;;107456;1251;61191;-80
2023/07/17 12:46:11;;;;;;;8.50;6.00;;;;;;;;;;107433;1253;61355;-80
2023/07/17 12:48:37;;;;;;;6.00;3.40;;;;;;;;;;107489;1253;61332;-81
2023/07/17 12:51:04;;;;;;;8.90;4.70;;;;;;;;;;107323;1253;61234;-81
2023/07/17 12:53:30;;;;;;;5.50;4.90;;;;;;;;;;107367;1250;61334;-82
2023/07/17 12:55:57;;;;;;;6.40;3.80;;;;;;;;;;107380;1252;61402;-82
2023/07/17 12:58:23;;;;;;;8.00;3.60;;;;;;;;;;107493;1251;61221;-82
2023/07/17 13:00:49;;;;;;;6.10;3.80;;;;;;;;;;107485;1253;61202;-82
2023/07/17 13:03:16;;;;;;;5.00;3.40;;;;;;;;;;107390;1253;61327;-82
2023/07/17 13:05:43;;;;;;;7.80;4.40;;;;;;;;;;107360;1251;61346;-80
2023/07/17 13:08:09;;;;;;;5.70;4.10;;;;;;;;;;107577;1251;61129;-79
2023/07/17 13:10:35;;;;;;;9.40;4.00;;;;;;;;;;107465;1251;61327;-81
2023/07/17 13:13:02;;;;;;;8.30;4.50;;;;;;;;;;108030;1251;58561;-82
2023/07/17 13:15:28;;;;;;;5.90;3.60;;;;;;;;;;108181;1251;22559;-80
2023/07/17 13:17:54;;;;;;;5.00;3.50;;;;;;;;;;108338;1251;22531;-84
2023/07/17 13:20:21;;;;;;;6.50;5.10;;;;;;;;;;108345;1251;37032;-81
2023/07/17 13:22:48;;;;;;;6.90;4.60;;;;;;;;;;108291;1251;22590;-81
2023/07/17 13:25:14;;;;;;;5.90;4.20;;;;;;;;;;108246;1252;22574;-82
2023/07/17 13:27:40;;;;;;;7.80;4.90;;;;;;;;;;108344;1251;25443;-81
2023/07/17 13:30:07;;;;;;;6.80;3.80;;;;;;;;;;108255;1251;22769;-80
2023/07/17 13:32:34;;;;;;;6.90;4.30;;;;;;;;;;108193;1249;22538;-81
2023/07/17 13:35:00;;;;;;;12.40;5.50;;;;;;;;;;108276;1251;25023;-82
2023/07/17 13:37:26;;;;;;;7.20;3.90;;;;;;;;;;108543;1250;23757;-83
2023/07/17 13:39:53;;;;;;;5.00;4.20;;;;;;;;;;108295;1250;22759;-83
2023/07/17 13:42:19;;;;;;;6.30;3.90;;;;;;;;;;108269;1251;24205;-83
2023/07/17 13:44:46;;;;;;;5.80;4.70;;;;;;;;;;108635;1249;23289;-83
2023/07/17 13:47:12;;;;;;;5.70;4.30;;;;;;;;;;108419;1250;22548;-81
2023/07/17 13:49:38;;;;;;;8.10;4.70;;;;;;;;;;108090;1250;22581;-81
2023/07/17 13:52:05;;;;;;;4.80;4.20;;;;;;;;;;108221;1251;22597;-80
2023/07/17 13:54:31;;;;;;;5.80;4.60;;;;;;;;;;108289;1251;25359;-81
2023/07/17 13:56:58;;;;;;;6.80;4.70;;;;;;;;;;108311;1252;22563;-83
2023/07/17 13:59:24;;;;;;;7.80;5.40;;;;;;;;;;108282;1251;22648;-83
2023/07/17 14:01:51;;;;;;;6.30;4.40;;;;;;;;;;108283;1249;26480;-83
2023/07/17 14:04:17;;;;;;;10.60;6.30;;;;;;;;;;108190;1250;25520;-81
2023/07/17 14:06:44;;;;;;;7.70;6.40;;;;;;;;;;108464;1253;22578;-81
2023/07/17 14:09:10;;;;;;;8.30;5.90;;;;;;;;;;108430;1251;22538;-82
2023/07/17 14:11:37;;;;;;;7.10;4.80;;;;;;;;;;108313;1251;24398;-81
2023/07/17 14:14:03;;;;;;;10.40;6.40;;;;;;;;;;108241;1251;22531;-83
2023/07/17 14:16:30;;;;;;;8.30;4.70;;;;;;;;;;108593;1250;25376;-83